sensor_id;sensor_type;location;lat;lon;timestamp;temperature;humidity
82877;DHT22;72655;47.596;7.658;2024-02-04T06:58:02;6.20;99.90
82877;DHT22;72655;47.596;7.658;2024-02-04T07:00:29;6.10;99.90
82877;DHT22;72655;47.596;7.658;2024-02-04T07:02:56;6.10;99.90
82877;DHT22;72655;47.596;7.658;2024-02-04T07:05:23;6.00;99.90
82877;DHT22;72655;47.596;7.658;2024-02-04T07:07:50;6.00;99.90
82877;DHT22;72655;47.596;7.658;2024-02-04T07:10:18;6.00;99.90
82877;DHT22;72655;47.596;7.658;2024-02-04T07:12:45;6.00;99.90
82877;DHT22;72655;47.596;7.658;2024-02-04T07:15:13;6.00;99.90
82877;DHT22;72655;47.596;7.658;2024-02-04T07:17:40;6.00;99.90
82877;DHT22;72655;47.596;7.658;2024-02-04T07:20:08;6.10;99.90
82877;DHT22;72655;47.596;7.658;2024-02-04T07:22:35;6.10;99.90
82877;DHT22;72655;47.596;7.658;2024-02-04T07:25:02;6.10;99.90
82877;DHT22;72655;47.596;7.658;2024-02-04T07:30:53;6.20;99.90
82877;DHT22;72655;47.596;7.658;2024-02-04T07:33:20;6.20;99.90
82877;DHT22;72655;47.596;7.658;2024-02-04T07:35:47;6.20;99.90
82877;DHT22;72655;47.596;7.658;2024-02-04T07:38:14;6.20;99.90
82877;DHT22;72655;47.596;7.658;2024-02-04T07:40:41;6.10;99.90
82877;DHT22;72655;47.596;7.658;2024-02-04T07:43:08;6.10;99.90
82877;DHT22;72655;47.596;7.658;2024-02-04T07:45:35;6.00;99.90
82877;DHT22;72655;47.596;7.658;2024-02-04T07:48:05;6.00;99.90
82877;DHT22;72655;47.596;7.658;2024-02-04T07:50:32;5.90;99.90
82877;DHT22;72655;47.596;7.658;2024-02-04T07:52:59;6.00;99.90
82877;DHT22;72655;47.596;7.658;2024-02-04T07:55:26;6.00;99.90
82877;DHT22;72655;47.596;7.658;2024-02-04T07:57:53;6.10;99.90
82877;DHT22;72655;47.596;7.658;2024-02-04T08:00:20;6.10;99.90
82877;DHT22;72655;47.596;7.658;2024-02-04T08:02:47;6.10;99.90
82877;DHT22;72655;47.596;7.658;2024-02-04T08:05:16;6.20;99.90
82877;DHT22;72655;47.596;7.658;2024-02-04T08:07:43;6.10;99.90
82877;DHT22;72655;47.596;7.658;2024-02-04T08:10:10;6.10;99.90
82877;DHT22;72655;47.596;7.658;2024-02-04T08:12:37;6.10;99.90
82877;DHT22;72655;47.596;7.658;2024-02-04T08:15:05;6.20;99.90
82877;DHT22;72655;47.596;7.658;2024-02-04T08:17:32;6.30;99.90
82877;DHT22;72655;47.596;7.658;2024-02-04T08:19:59;6.30;99.90
82877;DHT22;72655;47.596;7.658;2024-02-04T08:22:27;6.40;99.90
82877;DHT22;72655;47.596;7.658;2024-02-04T08:24:54;6.40;99.90
82877;DHT22;72655;47.596;7.658;2024-02-04T08:27:21;6.40;99.90
82877;DHT22;72655;47.596;7.658;2024-02-04T08:29:48;6.40;99.90
82877;DHT22;72655;47.596;7.658;2024-02-04T08:32:15;6.50;99.90
82877;DHT22;72655;47.596;7.658;2024-02-04T08:34:42;6.50;99.90
82877;DHT22;72655;47.596;7.658;2024-02-04T08:37:09;6.60;99.90
82877;DHT22;72655;47.596;7.658;2024-02-04T08:39:37;6.70;99.90
82877;DHT22;72655;47.596;7.658;2024-02-04T08:42:04;6.60;99.90
82877;DHT22;72655;47.596;7.658;2024-02-04T08:44:31;6.70;99.90
82877;DHT22;72655;47.596;7.658;2024-02-04T08:46:58;6.60;99.90
82877;DHT22;72655;47.596;7.658;2024-02-04T08:49:25;6.60;99.90
82877;DHT22;72655;47.596;7.658;2024-02-04T08:51:52;6.70;99.90
82877;DHT22;72655;47.596;7.658;2024-02-04T08:54:19;6.70;99.90
82877;DHT22;72655;47.596;7.658;2024-02-04T08:56:48;6.70;99.90
82877;DHT22;72655;47.596;7.658;2024-02-04T08:59:14;6.70;99.90
82877;DHT22;72655;47.596;7.658;2024-02-04T09:01:41;6.70;99.90
82877;DHT22;72655;47.596;7.658;2024-02-04T09:04:08;6.80;99.90
82877;DHT22;72655;47.596;7.658;2024-02-04T09:06:35;6.80;99.90
82877;DHT22;72655;47.596;7.658;2024-02-04T09:09:02;6.90;99.90
82877;DHT22;72655;47.596;7.658;2024-02-04T09:11:29;7.10;99.90
82877;DHT22;72655;47.596;7.658;2024-02-04T09:13:58;7.20;99.90
82877;DHT22;72655;47.596;7.658;2024-02-04T09:16:25;7.30;99.90
82877;DHT22;72655;47.596;7.658;2024-02-04T09:18:51;7.30;99.90
82877;DHT22;72655;47.596;7.658;2024-02-04T09:21:18;7.40;99.90
82877;DHT22;72655;47.596;7.658;2024-02-04T09:23:46;7.50;99.90
82877;DHT22;72655;47.596;7.658;2024-02-04T09:26:13;7.60;99.90
82877;DHT22;72655;47.596;7.658;2024-02-04T09:28:39;7.60;99.90
82877;DHT22;72655;47.596;7.658;2024-02-04T09:31:09;7.60;99.90
82877;DHT22;72655;47.596;7.658;2024-02-04T09:33:36;7.60;99.90
82877;DHT22;72655;47.596;7.658;2024-02-04T09:36:06;7.70;99.90
82877;DHT22;72655;47.596;7.658;2024-02-04T09:38:33;7.70;99.90
82877;DHT22;72655;47.596;7.658;2024-02-04T09:41:01;7.70;99.90
82877;DHT22;72655;47.596;7.658;2024-02-04T09:43:30;7.80;99.90
82877;DHT22;72655;47.596;7.658;2024-02-04T09:45:58;7.90;99.90
82877;DHT22;72655;47.596;7.658;2024-02-04T09:48:27;7.90;99.90
82877;DHT22;72655;47.596;7.658;2024-02-04T09:50:56;8.00;99.90
82877;DHT22;72655;47.596;7.658;2024-02-04T09:53:33;8.00;99.90
82877;DHT22;72655;47.596;7.658;2024-02-04T09:56:02;8.00;99.90
82877;DHT22;72655;47.596;7.658;2024-02-04T09:58:29;7.90;99.90
82877;DHT22;72655;47.596;7.658;2024-02-04T10:00:56;7.90;99.90
82877;DHT22;72655;47.596;7.658;2024-02-04T10:03:24;7.90;99.90
82877;DHT22;72655;47.596;7.658;2024-02-04T10:05:52;7.80;99.90
82877;DHT22;72655;47.596;7.658;2024-02-04T10:08:19;7.80;99.90
82877;DHT22;72655;47.596;7.658;2024-02-04T10:10:47;7.80;99.90
82877;DHT22;72655;47.596;7.658;2024-02-04T10:13:14;7.90;99.90
82877;DHT22;72655;47.596;7.658;2024-02-04T10:15:41;7.90;99.90
82877;DHT22;72655;47.596;7.658;2024-02-04T10:18:08;7.90;99.90
82877;DHT22;72655;47.596;7.658;2024-02-04T10:20:36;8.00;99.90
82877;DHT22;72655;47.596;7.658;2024-02-04T10:23:04;8.10;99.90
82877;DHT22;72655;47.596;7.658;2024-02-04T10:25:31;8.20;99.90
82877;DHT22;72655;47.596;7.658;2024-02-04T10:27:58;8.20;99.90
82877;DHT22;72655;47.596;7.658;2024-02-04T10:30:25;8.10;99.90
82877;DHT22;72655;47.596;7.658;2024-02-04T10:32:53;8.10;99.90
82877;DHT22;72655;47.596;7.658;2024-02-04T10:35:21;8.20;99.90
82877;DHT22;72655;47.596;7.658;2024-02-04T10:37:49;8.20;99.90
82877;DHT22;72655;47.596;7.658;2024-02-04T10:40:17;8.10;99.90
82877;DHT22;72655;47.596;7.658;2024-02-04T10:42:45;8.20;99.90
82877;DHT22;72655;47.596;7.658;2024-02-04T10:45:12;8.20;99.90
82877;DHT22;72655;47.596;7.658;2024-02-04T10:47:45;8.20;99.90
82877;DHT22;72655;47.596;7.658;2024-02-04T10:50:16;8.20;99.90
82877;DHT22;72655;47.596;7.658;2024-02-04T10:52:45;8.20;99.90
82877;DHT22;72655;47.596;7.658;2024-02-04T10:55:14;8.30;99.90
82877;DHT22;72655;47.596;7.658;2024-02-04T10:57:46;8.30;99.90
82877;DHT22;72655;47.596;7.658;2024-02-04T11:00:13;8.40;99.90
82877;DHT22;72655;47.596;7.658;2024-02-04T11:02:43;8.30;99.90
82877;DHT22;72655;47.596;7.658;2024-02-04T11:05:12;8.40;99.90
82877;DHT22;72655;47.596;7.658;2024-02-04T11:07:40;8.40;99.90
82877;DHT22;72655;47.596;7.658;2024-02-04T11:10:10;8.40;99.90
82877;DHT22;72655;47.596;7.658;2024-02-04T11:12:40;8.40;99.90
82877;DHT22;72655;47.596;7.658;2024-02-04T11:15:11;8.40;99.90
82877;DHT22;72655;47.596;7.658;2024-02-04T11:17:57;8.50;99.90
82877;DHT22;72655;47.596;7.658;2024-02-04T11:20:41;8.50;99.90
82877;DHT22;72655;47.596;7.658;2024-02-04T11:26:04;8.50;99.90
82877;DHT22;72655;47.596;7.658;2024-02-04T11:28:32;8.60;99.90
82877;DHT22;72655;47.596;7.658;2024-02-04T11:31:01;8.60;99.90
82877;DHT22;72655;47.596;7.658;2024-02-04T11:33:28;8.60;99.90
82877;DHT22;72655;47.596;7.658;2024-02-04T11:35:59;8.60;99.90
82877;DHT22;72655;47.596;7.658;2024-02-04T11:38:30;8.70;99.90
82877;DHT22;72655;47.596;7.658;2024-02-04T11:40:58;8.80;99.90
82877;DHT22;72655;47.596;7.658;2024-02-04T11:43:25;8.80;99.90
82877;DHT22;72655;47.596;7.658;2024-02-04T11:45:52;8.90;99.90
82877;DHT22;72655;47.596;7.658;2024-02-04T11:48:29;9.00;99.90
82877;DHT22;72655;47.596;7.658;2024-02-04T11:50:58;9.10;99.90
82877;DHT22;72655;47.596;7.658;2024-02-04T11:53:26;9.20;99.90
82877;DHT22;72655;47.596;7.658;2024-02-04T11:55:57;9.20;99.90
82877;DHT22;72655;47.596;7.658;2024-02-04T11:58:26;9.30;99.90
82877;DHT22;72655;47.596;7.658;2024-02-04T12:00:53;9.40;99.90
82877;DHT22;72655;47.596;7.658;2024-02-04T12:03:30;9.40;99.90
82877;DHT22;72655;47.596;7.658;2024-02-04T12:05:57;9.40;99.90
82877;DHT22;72655;47.596;7.658;2024-02-04T12:08:25;9.40;99.90
82877;DHT22;72655;47.596;7.658;2024-02-04T12:10:53;9.40;99.90
82877;DHT22;72655;47.596;7.658;2024-02-04T12:13:21;9.40;99.90
82877;DHT22;72655;47.596;7.658;2024-02-04T12:15:48;9.30;99.90
82877;DHT22;72655;47.596;7.658;2024-02-04T12:18:15;9.20;99.90
82877;DHT22;72655;47.596;7.658;2024-02-04T12:20:47;9.30;99.90
82877;DHT22;72655;47.596;7.658;2024-02-04T12:23:17;9.30;99.90
82877;DHT22;72655;47.596;7.658;2024-02-04T12:25:44;9.40;99.90
82877;DHT22;72655;47.596;7.658;2024-02-04T12:28:14;9.30;99.90
82877;DHT22;72655;47.596;7.658;2024-02-04T12:30:41;9.30;99.90
82877;DHT22;72655;47.596;7.658;2024-02-04T12:33:18;9.30;99.90
82877;DHT22;72655;47.596;7.658;2024-02-04T12:35:50;9.20;99.90
82877;DHT22;72655;47.596;7.658;2024-02-04T12:38:18;9.20;99.90
82877;DHT22;72655;47.596;7.658;2024-02-04T12:40:44;9.30;99.90
82877;DHT22;72655;47.596;7.658;2024-02-04T12:43:11;9.20;99.90
82877;DHT22;72655;47.596;7.658;2024-02-04T12:45:38;9.40;99.90
82877;DHT22;72655;47.596;7.658;2024-02-04T12:48:06;9.50;99.90
82877;DHT22;72655;47.596;7.658;2024-02-04T12:50:37;9.70;99.90
82877;DHT22;72655;47.596;7.658;2024-02-04T12:53:08;9.80;99.90
82877;DHT22;72655;47.596;7.658;2024-02-04T12:55:37;9.80;99.90
82877;DHT22;72655;47.596;7.658;2024-02-04T12:58:05;9.90;99.90
82877;DHT22;72655;47.596;7.658;2024-02-04T13:00:33;9.70;99.90
82877;DHT22;72655;47.596;7.658;2024-02-04T13:03:01;9.70;99.90
82877;DHT22;72655;47.596;7.658;2024-02-04T13:05:28;9.70;99.90
82877;DHT22;72655;47.596;7.658;2024-02-04T13:07:56;9.70;99.90
82877;DHT22;72655;47.596;7.658;2024-02-04T13:10:26;9.80;99.90
82877;DHT22;72655;47.596;7.658;2024-02-04T13:12:59;10.00;99.90
82877;DHT22;72655;47.596;7.658;2024-02-04T13:15:27;9.90;99.90
82877;DHT22;72655;47.596;7.658;2024-02-04T13:17:55;9.60;99.90
82877;DHT22;72655;47.596;7.658;2024-02-04T13:20:22;9.70;99.90
82877;DHT22;72655;47.596;7.658;2024-02-04T13:22:49;9.80;99.90
82877;DHT22;72655;47.596;7.658;2024-02-04T13:25:19;10.00;99.90
82877;DHT22;72655;47.596;7.658;2024-02-04T13:27:47;10.40;99.90
82877;DHT22;72655;47.596;7.658;2024-02-04T13:30:15;10.60;99.90
82877;DHT22;72655;47.596;7.658;2024-02-04T13:32:42;10.60;99.90
82877;DHT22;72655;47.596;7.658;2024-02-04T13:35:09;10.60;99.90
82877;DHT22;72655;47.596;7.658;2024-02-04T13:37:37;10.60;99.90
82877;DHT22;72655;47.596;7.658;2024-02-04T13:40:06;10.50;99.90
82877;DHT22;72655;47.596;7.658;2024-02-04T13:42:35;10.60;99.90
82877;DHT22;72655;47.596;7.658;2024-02-04T13:45:04;10.70;99.90
82877;DHT22;72655;47.596;7.658;2024-02-04T13:47:31;10.60;99.90
82877;DHT22;72655;47.596;7.658;2024-02-04T13:49:58;10.90;99.90
82877;DHT22;72655;47.596;7.658;2024-02-04T13:52:25;11.20;99.90
82877;DHT22;72655;47.596;7.658;2024-02-04T13:54:52;11.40;99.90
82877;DHT22;72655;47.596;7.658;2024-02-04T13:57:19;11.70;99.90
82877;DHT22;72655;47.596;7.658;2024-02-04T13:59:46;12.50;99.90
82877;DHT22;72655;47.596;7.658;2024-02-04T14:02:14;13.20;99.90
82877;DHT22;72655;47.596;7.658;2024-02-04T14:04:41;13.60;99.90
82877;DHT22;72655;47.596;7.658;2024-02-04T14:07:08;13.60;99.90
82877;DHT22;72655;47.596;7.658;2024-02-04T14:09:35;13.40;99.90
82877;DHT22;72655;47.596;7.658;2024-02-04T14:12:02;12.50;99.90
82877;DHT22;72655;47.596;7.658;2024-02-04T14:14:30;12.20;99.90
82877;DHT22;72655;47.596;7.658;2024-02-04T14:16:57;12.10;99.90
82877;DHT22;72655;47.596;7.658;2024-02-04T14:19:25;11.90;99.90
82877;DHT22;72655;47.596;7.658;2024-02-04T14:21:52;11.90;99.90
82877;DHT22;72655;47.596;7.658;2024-02-04T14:24:19;11.90;99.90
82877;DHT22;72655;47.596;7.658;2024-02-04T14:26:46;12.00;99.90
82877;DHT22;72655;47.596;7.658;2024-02-04T14:29:13;12.10;99.90
82877;DHT22;72655;47.596;7.658;2024-02-04T14:31:41;12.30;99.90
82877;DHT22;72655;47.596;7.658;2024-02-04T14:34:09;12.70;99.90
82877;DHT22;72655;47.596;7.658;2024-02-04T14:36:37;13.00;99.90
82877;DHT22;72655;47.596;7.658;2024-02-04T14:39:04;13.10;99.90
82877;DHT22;72655;47.596;7.658;2024-02-04T14:41:34;13.10;99.90
82877;DHT22;72655;47.596;7.658;2024-02-04T14:44:01;13.30;99.90
82877;DHT22;72655;47.596;7.658;2024-02-04T14:46:28;13.20;99.90
82877;DHT22;72655;47.596;7.658;2024-02-04T14:48:55;12.70;99.90
82877;DHT22;72655;47.596;7.658;2024-02-04T14:51:22;12.20;99.90
82877;DHT22;72655;47.596;7.658;2024-02-04T14:53:50;12.00;99.90
82877;DHT22;72655;47.596;7.658;2024-02-04T14:56:17;12.20;99.90
82877;DHT22;72655;47.596;7.658;2024-02-04T14:58:44;12.40;99.90
82877;DHT22;72655;47.596;7.658;2024-02-04T15:01:11;12.70;99.90
82877;DHT22;72655;47.596;7.658;2024-02-04T15:03:38;12.70;99.90
82877;DHT22;72655;47.596;7.658;2024-02-04T15:06:05;12.50;99.90
82877;DHT22;72655;47.596;7.658;2024-02-04T15:08:32;11.80;99.90
82877;DHT22;72655;47.596;7.658;2024-02-04T15:11:00;11.00;99.90
82877;DHT22;72655;47.596;7.658;2024-02-04T15:13:28;10.60;99.90
82877;DHT22;72655;47.596;7.658;2024-02-04T15:15:56;10.20;99.90
82877;DHT22;72655;47.596;7.658;2024-02-04T15:18:23;9.90;99.90
82877;DHT22;72655;47.596;7.658;2024-02-04T15:20:51;9.80;99.90
82877;DHT22;72655;47.596;7.658;2024-02-04T15:23:18;9.80;99.90
82877;DHT22;72655;47.596;7.658;2024-02-04T15:25:45;9.70;99.90
82877;DHT22;72655;47.596;7.658;2024-02-04T15:28:15;9.60;99.90
82877;DHT22;72655;47.596;7.658;2024-02-04T15:30:43;9.60;99.90
82877;DHT22;72655;47.596;7.658;2024-02-04T15:33:10;9.70;99.90
82877;DHT22;72655;47.596;7.658;2024-02-04T15:35:37;9.80;99.90
82877;DHT22;72655;47.596;7.658;2024-02-04T15:38:04;10.00;99.90
82877;DHT22;72655;47.596;7.658;2024-02-04T15:40:32;10.30;99.90
82877;DHT22;72655;47.596;7.658;2024-02-04T15:42:58;10.40;99.90
82877;DHT22;72655;47.596;7.658;2024-02-04T15:45:27;10.40;99.90
82877;DHT22;72655;47.596;7.658;2024-02-04T15:47:55;10.40;99.90
82877;DHT22;72655;47.596;7.658;2024-02-04T15:50:23;10.10;99.90
82877;DHT22;72655;47.596;7.658;2024-02-04T15:52:51;9.90;99.90
82877;DHT22;72655;47.596;7.658;2024-02-04T15:55:19;9.70;99.90
82877;DHT22;72655;47.596;7.658;2024-02-04T15:57:48;9.60;99.90
82877;DHT22;72655;47.596;7.658;2024-02-04T16:00:17;9.50;99.90
82877;DHT22;72655;47.596;7.658;2024-02-04T16:02:49;9.30;99.90
82877;DHT22;72655;47.596;7.658;2024-02-04T16:05:17;9.20;99.90
82877;DHT22;72655;47.596;7.658;2024-02-04T16:07:45;9.20;99.90
82877;DHT22;72655;47.596;7.658;2024-02-04T16:10:16;8.90;99.90
82877;DHT22;72655;47.596;7.658;2024-02-04T16:12:54;8.80;99.90
82877;DHT22;72655;47.596;7.658;2024-02-04T16:15:23;8.60;99.90
82877;DHT22;72655;47.596;7.658;2024-02-04T16:17:53;8.50;99.90
82877;DHT22;72655;47.596;7.658;2024-02-04T16:20:20;8.40;99.90
82877;DHT22;72655;47.596;7.658;2024-02-04T16:22:48;8.30;99.90
82877;DHT22;72655;47.596;7.658;2024-02-04T16:25:16;8.20;99.90
82877;DHT22;72655;47.596;7.658;2024-02-04T16:27:43;8.10;99.90
82877;DHT22;72655;47.596;7.658;2024-02-04T16:30:11;8.10;99.90
82877;DHT22;72655;47.596;7.658;2024-02-04T16:32:39;8.10;99.90
82877;DHT22;72655;47.596;7.658;2024-02-04T16:35:08;8.10;99.90
82877;DHT22;72655;47.596;7.658;2024-02-04T16:37:35;8.00;99.90
82877;DHT22;72655;47.596;7.658;2024-02-04T16:40:02;8.00;99.90
82877;DHT22;72655;47.596;7.658;2024-02-04T16:42:30;7.90;99.90
82877;DHT22;72655;47.596;7.658;2024-02-04T16:45:01;7.80;99.90
82877;DHT22;72655;47.596;7.658;2024-02-04T16:47:28;7.70;99.90
82877;DHT22;72655;47.596;7.658;2024-02-04T16:49:55;7.70;99.90
82877;DHT22;72655;47.596;7.658;2024-02-04T16:52:25;7.60;99.90
82877;DHT22;72655;47.596;7.658;2024-02-04T16:54:52;7.60;99.90
82877;DHT22;72655;47.596;7.658;2024-02-04T16:57:19;7.50;99.90
82877;DHT22;72655;47.596;7.658;2024-02-04T16:59:47;7.50;99.90
82877;DHT22;72655;47.596;7.658;2024-02-04T17:02:14;7.50;99.90
82877;DHT22;72655;47.596;7.658;2024-02-04T17:04:44;7.40;99.90
82877;DHT22;72655;47.596;7.658;2024-02-04T17:07:15;7.40;99.90
82877;DHT22;72655;47.596;7.658;2024-02-04T17:09:44;7.30;99.90
82877;DHT22;72655;47.596;7.658;2024-02-04T17:12:13;7.20;99.90
82877;DHT22;72655;47.596;7.658;2024-02-04T17:14:41;7.20;99.90
82877;DHT22;72655;47.596;7.658;2024-02-04T17:17:12;7.20;99.90
82877;DHT22;72655;47.596;7.658;2024-02-04T17:19:45;7.20;99.90
82877;DHT22;72655;47.596;7.658;2024-02-04T17:22:15;7.10;99.90
82877;DHT22;72655;47.596;7.658;2024-02-04T17:24:49;7.10;99.90
82877;DHT22;72655;47.596;7.658;2024-02-04T17:27:17;7.20;99.90
82877;DHT22;72655;47.596;7.658;2024-02-04T17:29:45;7.20;99.90
82877;DHT22;72655;47.596;7.658;2024-02-04T17:32:14;7.20;99.90
82877;DHT22;72655;47.596;7.658;2024-02-04T17:34:41;7.10;99.90
82877;DHT22;72655;47.596;7.658;2024-02-04T17:37:09;7.10;99.90
82877;DHT22;72655;47.596;7.658;2024-02-04T17:39:36;7.10;99.90
82877;DHT22;72655;47.596;7.658;2024-02-04T17:42:07;7.10;99.90
82877;DHT22;72655;47.596;7.658;2024-02-04T17:44:36;7.00;99.90
82877;DHT22;72655;47.596;7.658;2024-02-04T17:47:03;7.00;99.90
82877;DHT22;72655;47.596;7.658;2024-02-04T17:49:30;7.00;99.90
82877;DHT22;72655;47.596;7.658;2024-02-04T17:51:57;7.00;99.90
82877;DHT22;72655;47.596;7.658;2024-02-04T17:54:24;6.90;99.90
82877;DHT22;72655;47.596;7.658;2024-02-04T17:56:51;6.90;99.90
82877;DHT22;72655;47.596;7.658;2024-02-04T17:59:19;7.00;99.90
82877;DHT22;72655;47.596;7.658;2024-02-04T18:01:47;7.00;99.90
82877;DHT22;72655;47.596;7.658;2024-02-04T18:04:15;6.90;99.90
82877;DHT22;72655;47.596;7.658;2024-02-04T18:06:42;6.80;99.90
82877;DHT22;72655;47.596;7.658;2024-02-04T18:09:09;6.80;99.90
82877;DHT22;72655;47.596;7.658;2024-02-04T18:11:36;6.80;99.90
82877;DHT22;72655;47.596;7.658;2024-02-04T18:14:03;6.80;99.90
82877;DHT22;72655;47.596;7.658;2024-02-04T18:16:33;6.80;99.90
82877;DHT22;72655;47.596;7.658;2024-02-04T18:19:00;6.80;99.90
82877;DHT22;72655;47.596;7.658;2024-02-04T18:21:28;6.70;99.90
82877;DHT22;72655;47.596;7.658;2024-02-04T18:23:55;6.70;99.90
82877;DHT22;72655;47.596;7.658;2024-02-04T18:26:24;6.70;99.90
82877;DHT22;72655;47.596;7.658;2024-02-04T18:28:51;6.70;99.90
82877;DHT22;72655;47.596;7.658;2024-02-04T18:31:19;6.70;99.90
82877;DHT22;72655;47.596;7.658;2024-02-04T18:33:47;6.70;99.90
82877;DHT22;72655;47.596;7.658;2024-02-04T18:36:16;6.70;99.90
82877;DHT22;72655;47.596;7.658;2024-02-04T18:38:47;6.70;99.90
82877;DHT22;72655;47.596;7.658;2024-02-04T18:41:14;6.70;99.90
82877;DHT22;72655;47.596;7.658;2024-02-04T18:43:42;6.70;99.90
82877;DHT22;72655;47.596;7.658;2024-02-04T18:46:09;6.80;99.90
82877;DHT22;72655;47.596;7.658;2024-02-04T18:48:37;6.80;99.90
82877;DHT22;72655;47.596;7.658;2024-02-04T18:51:07;6.80;99.90
